Latest Weather Observations for Scherger

IDQ60801

Issued at 9:05 pm EST Wednesday 17 September 2014 (issued every 30 minutes, with the page automatically refreshed every 10 minutes)

About weather observations | Map of weather stations | Latest weather observations for QLD | Other Formats
Station Details ID: 027075 Name: SCHERGER RAAF Lat: -12.62 Lon: 142.09 Height: 39.34 m
Data from the previous 72 hours. | See also: Recent months at Scherger
Date/Time
EST
Temp
°C
App
Temp
°C
Dew
Point
Rel
Hum
%
Delta-T
°C
Wind Press
QNH
hPa
Press
MSL
hPa
Rain
since 9 am
mm
Dir
 
Spd
km/h
Gust
km/h
Spd
kts
Gust
kts
17/09:00pm 22.8 23.7 13.0 54 5.6 ENE 0 0 0 0 1014.8 1014.6 0.0
17/08:30pm 24.4 26.4 16.1 60 5.1 N 0 0 0 0 1014.4 1014.2 0.0
17/08:00pm 25.6 25.1 12.1 43 7.7 NNE 6 9 3 5 1014.0 1013.8 0.0
17/07:30pm 27.3 25.9 10.9 36 9.3 E 9 17 5 9 1013.7 1013.5 0.0
17/07:00pm 26.7 28.6 17.7 57 5.7 NNW 4 9 2 5 1013.1 1012.9 0.0
17/06:30pm 28.1 28.9 17.3 52 6.8 NW 9 19 5 10 1012.3 1012.1 0.0
17/06:00pm 30.7 28.6 11.1 30 11.3 ENE 13 22 7 12 1011.4 1011.2 0.0
17/05:30pm 32.1 30.0 11.3 28 12.1 ENE 13 24 7 13 1010.9 1010.7 0.0
17/05:00pm 33.6 31.1 9.6 23 13.7 E 13 24 7 13 1010.8 1010.6 0.0
17/04:30pm 34.6 32.5 9.8 22 14.3 ESE 11 20 6 11 1010.6 1010.4 0.0
17/04:00pm 34.1 31.6 8.0 20 14.6 E 11 20 6 11 1010.5 1010.3 0.0
17/03:30pm 34.9 32.3 9.3 21 14.7 E 13 30 7 16 1010.5 1010.3 0.0
17/03:00pm 34.7 32.5 9.2 21 14.6 SSE 11 22 6 12 1010.8 1010.6 0.0
17/02:30pm 34.9 32.9 10.0 22 14.4 E 11 20 6 11 1011.3 1011.1 0.0
17/02:00pm 34.2 30.5 9.4 22 14.2 E 19 32 10 17 1011.6 1011.4 0.0
17/01:30pm 34.7 31.7 10.5 23 14.1 ESE 17 35 9 19 1012.1 1011.9 0.0
17/01:00pm 33.7 31.0 9.0 22 14.0 E 13 26 7 14 1012.6 1012.4 0.0
17/12:30pm 33.1 30.2 11.0 26 12.9 ESE 17 30 9 16 1013.0 1012.8 0.0
17/12:00pm 32.4 30.7 12.6 30 11.8 ESE 13 20 7 11 1013.7 1013.5 0.0
17/11:30am 31.0 29.8 12.8 32 10.8 E 11 19 6 10 1014.3 1014.1 0.0
17/11:00am 31.2 30.1 15.2 38 9.9 E 15 20 8 11 1014.9 1014.7 0.0
17/10:30am 30.0 29.9 16.1 43 8.7 SE 11 15 6 8 1015.4 1015.2 0.0
17/10:00am 28.7 27.7 15.6 45 8.1 E 15 24 8 13 1015.5 1015.3 0.0
17/09:30am 27.8 28.2 17.3 52 6.6 ESE 11 19 6 10 1015.8 1015.6 0.0
17/09:00am 26.6 27.2 17.7 58 5.6 SE 11 20 6 11 1015.7 1015.5 -
17/08:30am 25.3 26.3 18.7 67 4.2 ESE 11 19 6 10 1015.5 1015.3 -
17/08:00am 23.1 24.8 18.4 75 3.0 ESE 7 13 4 7 1015.3 1015.1 -
17/07:30am 20.7 23.4 17.7 83 1.9 CALM 0 0 0 0 1015.0 1014.8 -
17/07:00am 18.6 21.0 16.9 90 1.0 CALM 0 0 0 0 1014.6 1014.4 -
17/06:30am 18.1 20.1 16.1 88 1.2 S 0 0 0 0 1014.3 1014.1 -
17/06:00am 18.6 20.8 16.6 88 1.2 S 0 0 0 0 1014.0 1013.8 -
17/05:30am 19.3 20.6 17.1 87 1.3 S 6 7 3 4 1013.6 1013.4 -
17/05:00am 19.0 19.9 16.6 86 1.4 S 7 7 4 4 1013.2 1013.0 -
17/04:30am 19.3 20.2 16.7 85 1.6 S 7 7 4 4 1012.9 1012.7 -
17/04:00am 19.2 21.4 16.4 84 1.7 CALM 0 0 0 0 1012.9 1012.7 -
17/03:30am 19.5 21.7 16.5 83 1.8 CALM 0 0 0 0 1012.9 1012.7 -
17/03:00am 19.7 21.8 16.3 81 2.0 CALM 0 0 0 0 1013.0 1012.8 -
17/02:30am 19.7 21.8 16.2 80 2.1 CALM 0 0 0 0 1013.3 1013.1 -
17/02:00am 20.2 22.4 16.4 79 2.3 CALM 0 0 0 0 1013.7 1013.5 -
17/01:30am 20.7 23.0 16.7 78 2.4 CALM 0 0 0 0 1014.0 1013.8 -
17/01:00am 20.8 23.0 16.4 76 2.7 CALM 0 0 0 0 1014.0 1013.8 -
17/12:30am 21.6 23.8 16.6 73 3.0 CALM 0 0 0 0 1014.3 1014.1 -
17/12:00am 22.0 24.0 16.9 73 3.1 ESE 2 6 1 3 1014.3 1014.1 -
 
Date/Time
EST
Temp
°C
App
Temp
°C
Dew
Point
Rel
Hum
%
Delta-T
°C
Wind Press
QNH
hPa
Press
MSL
hPa
Rain
since 9 am
mm
Dir
 
Spd
km/h
Gust
km/h
Spd
kts
Gust
kts
16/11:30pm 22.3 23.6 17.0 72 3.3 ESE 6 7 3 4 1014.1 1013.9 -
16/11:00pm 22.6 23.5 16.6 69 3.7 ENE 7 9 4 5 1014.3 1014.1 -
16/10:30pm 22.9 23.8 16.0 65 4.2 E 6 7 3 4 1014.3 1014.1 -
16/10:00pm 23.8 25.0 15.8 61 4.8 E 4 9 2 5 1014.3 1014.1 -
16/09:30pm 24.5 24.7 15.7 58 5.3 E 9 13 5 7 1014.0 1013.8 -
16/09:00pm 25.2 25.7 15.5 55 5.9 E 7 13 4 7 1013.5 1013.3 -
16/08:30pm 25.9 26.3 15.3 52 6.4 E 7 13 4 7 1013.0 1012.8 -
16/08:00pm 26.8 26.4 15.2 49 7.0 E 11 20 6 11 1012.7 1012.5 -
16/07:30pm 27.7 27.0 13.3 41 8.5 E 9 17 5 9 1012.0 1011.8 -
16/07:00pm 28.8 27.7 13.1 38 9.3 ENE 11 19 6 10 1011.3 1011.1 -
16/06:30pm 29.2 27.8 13.4 38 9.4 E 13 24 7 13 1010.6 1010.4 -
16/06:00pm 30.2 28.1 13.5 36 10.0 E 17 30 9 16 1010.1 1009.9 -
16/05:30pm 32.2 29.9 12.9 31 11.5 E 17 24 9 13 1009.6 1009.4 -
16/05:00pm 33.7 32.5 11.5 26 13.1 E 9 17 5 9 1009.3 1009.1 -
16/04:30pm 33.6 32.2 10.9 25 13.2 E 9 19 5 10 1009.2 1008.9 -
16/04:00pm 33.8 31.9 10.4 24 13.6 E 11 17 6 9 1009.1 1008.8 -
16/03:30pm 34.4 31.9 10.9 24 13.8 SE 15 20 8 11 1009.2 1008.9 -
16/03:00pm 34.5 32.0 11.0 24 13.8 ESE 15 28 8 15 1009.7 1009.5 -
16/02:30pm 35.2 32.5 11.6 24 14.0 E 17 24 9 13 1010.1 1009.9 0.0
16/02:00pm 33.9 31.2 10.5 24 13.6 SE 15 24 8 13 1010.5 1010.3 0.0
16/01:30pm 33.4 31.0 10.1 24 13.4 ESE 13 22 7 12 1011.1 1010.9 0.0
16/01:00pm 33.8 31.3 11.0 25 13.3 SE 15 24 8 13 1011.5 1011.3 0.0
16/12:30pm 33.0 30.0 12.1 28 12.4 S 19 26 10 14 1012.1 1011.9 0.0
16/12:00pm 32.0 29.6 12.8 31 11.5 SSE 17 20 9 11 1012.8 1012.6 0.0
16/11:30am 31.4 30.4 14.5 35 10.3 ESE 13 26 7 14 1013.4 1013.2 0.0
16/11:00am 30.7 30.3 16.3 42 9.0 E 13 22 7 12 1014.1 1013.9 0.0
16/10:30am 29.3 29.5 16.8 47 7.8 E 11 19 6 10 1014.6 1014.4 0.0
16/10:00am 28.0 28.1 17.5 52 6.6 SE 13 24 7 13 1014.9 1014.7 0.0
16/09:30am 26.7 26.3 17.2 56 5.9 ESE 15 20 8 11 1015.1 1014.9 0.0
16/09:00am 25.7 25.6 17.9 62 4.9 ESE 15 24 8 13 1015.2 1015.0 0.0
16/08:30am 24.5 24.8 18.0 67 4.1 ESE 13 20 7 11 1015.1 1014.9 0.0
16/08:00am 22.9 23.5 17.8 73 3.2 ESE 11 17 6 9 1014.9 1014.7 0.0
16/07:30am 20.7 22.0 17.5 82 2.0 SSE 7 11 4 6 1014.6 1014.4 0.0
16/07:00am 18.5 20.6 16.3 87 1.3 CALM 0 0 0 0 1014.3 1014.1 0.0
16/06:30am 18.0 19.8 15.4 85 1.5 CALM 0 0 0 0 1014.0 1013.8 0.0
16/06:00am 18.4 20.2 15.6 84 1.7 CALM 0 0 0 0 1013.6 1013.4 0.0
16/05:30am 18.6 20.5 15.8 84 1.7 CALM 0 0 0 0 1013.3 1013.1 0.0
16/05:00am 18.6 20.4 15.5 82 1.8 CALM 0 0 0 0 1013.0 1012.8 0.0
16/04:30am 18.8 20.6 15.5 81 1.9 CALM 0 0 0 0 1013.0 1012.8 0.0
16/04:00am 18.9 20.7 15.6 81 2.0 CALM 0 0 0 0 1012.9 1012.7 0.0
16/03:30am 18.9 20.7 15.4 80 2.1 CALM 0 0 0 0 1012.8 1012.6 0.0
16/03:00am 18.9 20.7 15.4 80 2.1 CALM 0 0 0 0 1013.0 1012.8 0.0
16/02:30am 19.2 20.9 15.3 78 2.3 CALM 0 0 0 0 1013.2 1013.0 0.0
16/02:00am 19.6 21.3 15.3 76 2.5 CALM 0 0 0 0 1013.5 1013.3 0.0
16/01:30am 20.0 21.7 15.2 74 2.8 CALM 0 0 0 0 1013.6 1013.4 0.0
16/01:00am 20.5 22.2 15.3 72 3.1 CALM 0 0 0 0 1013.9 1013.7 0.0
16/12:30am 21.2 22.9 15.3 69 3.5 CALM 0 0 0 0 1013.9 1013.7 0.0
16/12:00am 21.9 23.7 15.5 67 3.8 CALM 0 0 0 0 1014.1 1013.9 0.0
 
Date/Time
EST
Temp
°C
App
Temp
°C
Dew
Point
Rel
Hum
%
Delta-T
°C
Wind Press
QNH
hPa
Press
MSL
hPa
Rain
since 9 am
mm
Dir
 
Spd
km/h
Gust
km/h
Spd
kts
Gust
kts
15/11:30pm 22.6 22.8 15.7 65 4.2 E 9 13 5 7 1014.0 1013.8 0.0
15/11:00pm 23.1 23.6 14.9 60 4.9 ENE 6 11 3 6 1013.9 1013.7 0.0
15/10:30pm 23.4 23.5 15.5 61 4.8 ENE 9 15 5 8 1013.8 1013.6 0.0
15/10:00pm 23.3 24.8 17.7 71 3.5 ENE 6 7 3 4 1013.7 1013.5 0.0
15/09:30pm 23.2 26.6 19.4 79 2.4 CALM 0 0 0 0 1013.5 1013.3 0.0
15/09:00pm 23.6 27.2 19.7 79 2.5 CALM 0 0 0 0 1013.1 1012.9 0.0
15/08:30pm 24.1 27.4 19.2 74 3.1 CALM 0 0 0 0 1012.7 1012.5 0.0
15/08:00pm 24.8 28.2 19.4 72 3.5 CALM 0 0 0 0 1012.2 1012.0 0.0
15/07:30pm 25.5 28.3 19.6 70 3.8 NW 4 11 2 6 1011.7 1011.5 0.0
15/07:00pm 26.1 27.9 19.5 67 4.3 NW 9 15 5 8 1011.3 1011.1 0.0
15/06:30pm 27.8 29.5 19.3 60 5.5 NNW 9 15 5 8 1010.7 1010.5 0.0
15/06:00pm 30.9 30.7 13.7 35 10.4 E 7 15 4 8 1009.9 1009.7 0.0
15/05:30pm 31.2 30.1 13.0 33 10.9 E 11 19 6 10 1009.6 1009.4 0.0
15/05:00pm 32.4 31.0 12.1 29 12.0 ESE 11 20 6 11 1009.4 1009.2 0.0
15/04:30pm 33.9 32.7 11.7 26 13.1 NE 9 17 5 9 1009.3 1009.1 0.0
15/04:00pm 32.5 31.3 11.6 28 12.3 SE 9 15 5 8 1009.3 1009.1 0.0
15/03:30pm 34.4 33.3 12.1 26 13.3 E 9 13 5 7 1009.5 1009.3 0.0
15/03:00pm 32.5 31.5 12.2 29 12.0 SE 9 17 5 9 1009.8 1009.6 0.0
15/02:30pm 33.9 32.0 11.7 26 13.1 ESE 13 22 7 12 1010.1 1009.9 0.0
15/02:00pm 33.0 31.0 11.5 27 12.6 SE 13 24 7 13 1010.5 1010.3 0.0
15/01:30pm 33.0 31.3 12.6 29 12.2 E 13 22 7 12 1011.0 1010.8 0.0
15/01:00pm 33.1 30.9 13.2 30 12.0 SE 17 28 9 15 1011.5 1011.3 0.0
15/12:30pm 32.0 29.9 13.7 33 11.1 SE 17 22 9 12 1012.0 1011.8 0.0
15/12:00pm 30.9 30.5 14.1 36 10.2 ESE 9 20 5 11 1012.7 1012.5 0.0
15/11:30am 31.3 31.0 16.5 41 9.3 ESE 13 28 7 15 1013.3 1013.1 0.0
15/11:00am 29.6 29.2 16.1 44 8.4 ESE 13 24 7 13 1013.8 1013.6 0.0
15/10:30am 29.1 28.8 17.3 49 7.5 E 15 24 8 13 1014.2 1014.0 0.0
15/10:00am 27.4 27.2 16.7 52 6.7 E 13 20 7 11 1014.5 1014.3 0.0
15/09:30am 26.4 25.6 17.2 57 5.8 ESE 17 30 9 16 1014.5 1014.3 0.0
15/09:00am 26.0 25.8 18.4 63 4.8 ESE 17 28 9 15 1014.5 1014.3 0.0
15/08:30am 23.8 24.3 17.5 68 3.9 ESE 11 19 6 10 1014.5 1014.3 0.0
15/08:00am 22.2 23.0 17.3 74 3.0 SSE 9 15 5 8 1014.2 1014.0 0.0
15/07:30am 20.2 21.3 17.0 82 1.9 SSE 7 11 4 6 1013.9 1013.7 0.0
15/07:00am 18.7 19.6 16.7 88 1.2 S 7 9 4 5 1013.7 1013.5 0.0
15/06:30am 18.1 18.8 16.1 88 1.2 S 7 9 4 5 1013.2 1013.0 0.0
15/06:00am 18.0 20.1 16.2 89 1.1 CALM 0 0 0 0 1013.1 1012.9 0.0
15/05:30am 17.8 19.7 15.8 88 1.2 CALM 0 0 0 0 1012.7 1012.5 0.0
15/05:00am 17.8 19.6 15.6 87 1.3 CALM 0 0 0 0 1012.4 1012.2 0.0
15/04:30am 18.0 19.8 15.4 85 1.5 CALM 0 0 0 0 1012.4 1012.2 0.0
15/04:00am 18.2 20.0 15.5 84 1.6 CALM 0 0 0 0 1012.4 1012.2 0.0
15/03:30am 18.6 20.5 15.7 83 1.7 CALM 0 0 0 0 1012.4 1012.2 0.0
15/03:00am 19.0 20.9 15.7 81 2.0 CALM 0 0 0 0 1012.4 1012.2 0.0
15/02:30am 19.6 21.6 16.1 80 2.1 CALM 0 0 0 0 1012.4 1012.2 0.0
15/02:00am 20.3 21.4 16.5 79 2.3 SSE 6 7 3 4 1012.6 1012.4 0.0
15/01:30am 20.6 22.3 16.2 76 2.6 SE 2 7 1 4 1012.9 1012.7 0.0
15/01:00am 21.3 22.4 16.7 75 2.8 ESE 6 11 3 6 1013.2 1013.0 0.0
15/12:30am 21.6 22.7 16.6 73 3.0 ESE 6 9 3 5 1013.4 1013.2 0.0
15/12:00am 22.1 22.6 16.6 71 3.4 ESE 9 15 5 8 1013.7 1013.5 0.0
 
Date/Time
EST
Temp
°C
App
Temp
°C
Dew
Point
Rel
Hum
%
Delta-T
°C
Wind Press
QNH
hPa
Press
MSL
hPa
Rain
since 9 am
mm
Dir
 
Spd
km/h
Gust
km/h
Spd
kts
Gust
kts
14/11:30pm 22.4 23.3 16.7 70 3.5 E 7 13 4 7 1013.8 1013.6 0.0
14/11:00pm 22.6 23.0 16.4 68 3.8 E 9 17 5 9 1013.7 1013.5 0.0
14/10:30pm 23.0 23.0 16.3 66 4.1 E 11 20 6 11 1013.7 1013.5 0.0
14/10:00pm 23.4 22.2 16.0 63 4.5 E 17 28 9 15 1013.7 1013.5 0.0
14/09:30pm 23.7 23.5 15.7 61 4.8 E 11 20 6 11 1013.6 1013.4 0.0

Other Formats:

Comma delimited format used in spreadsheet applications
http://www.bom.gov.au/fwo/IDQ60801/IDQ60801.94171.axf

JavaScript Object Notation format (JSON) in row-major order
http://www.bom.gov.au/fwo/IDQ60801/IDQ60801.94171.json